createdAt,value
2023-04-09T00:00:44.989Z,100.00
2023-04-09T00:03:12.214Z,100.00
2023-04-09T00:05:40.846Z,100.00
2023-04-09T00:08:08.105Z,100.00
2023-04-09T00:10:35.425Z,100.00
2023-04-09T00:13:02.347Z,100.00
2023-04-09T00:15:31.673Z,100.00
2023-04-09T00:17:59.893Z,100.00
2023-04-09T00:20:26.932Z,100.00
2023-04-09T00:22:54.457Z,100.00
2023-04-09T00:25:21.503Z,99.98
2023-04-09T00:27:48.511Z,100.00
2023-04-09T00:30:16.062Z,100.00
2023-04-09T00:32:43.165Z,100.00
2023-04-09T00:35:10.525Z,99.14
2023-04-09T00:37:37.502Z,99.44
2023-04-09T00:40:05.372Z,98.98
2023-04-09T00:42:33.638Z,100.00
2023-04-09T00:45:01.139Z,94.83
2023-04-09T00:47:29.745Z,93.82
2023-04-09T00:49:57.424Z,95.47
2023-04-09T00:52:25.197Z,96.02
2023-04-09T00:54:52.901Z,94.06
2023-04-09T00:57:19.909Z,94.66
2023-04-09T00:59:46.958Z,95.68
2023-04-09T01:02:14.098Z,95.80
2023-04-09T01:04:42.821Z,94.84
2023-04-09T01:07:25.913Z,93.37
2023-04-09T01:10:09.652Z,95.16
2023-04-09T01:13:00.048Z,94.59
2023-04-09T01:15:31.470Z,91.99
2023-04-09T01:18:13.632Z,93.30
2023-04-09T01:20:48.586Z,94.31
2023-04-09T01:23:43.326Z,95.36
2023-04-09T01:26:34.706Z,93.16
2023-04-09T01:29:03.247Z,94.66
2023-04-09T01:31:34.655Z,94.00
2023-04-09T01:34:03.713Z,97.25
2023-04-09T01:36:32.431Z,92.44
2023-04-09T01:39:02.382Z,92.26
2023-04-09T01:41:32.656Z,93.20
2023-04-09T01:44:01.974Z,95.29
2023-04-09T01:46:30.101Z,93.72
2023-04-09T01:48:57.801Z,91.70
2023-04-09T01:51:27.454Z,92.74
2023-04-09T01:53:54.581Z,93.15
2023-04-09T01:56:21.824Z,92.77
2023-04-09T01:58:49.069Z,91.43
2023-04-09T02:01:32.232Z,91.86
2023-04-09T02:04:04.289Z,95.68
2023-04-09T02:06:47.509Z,96.67
2023-04-09T02:09:18.839Z,94.43
2023-04-09T02:11:49.049Z,94.95
2023-04-09T02:14:16.667Z,97.52
2023-04-09T02:16:43.887Z,97.12
2023-04-09T02:19:11.198Z,96.68
2023-04-09T02:21:38.275Z,96.01
2023-04-09T02:24:05.527Z,97.33
2023-04-09T02:26:32.542Z,97.89
2023-04-09T02:28:59.623Z,97.49
2023-04-09T02:31:26.624Z,98.04
2023-04-09T02:33:54.340Z,97.80
2023-04-09T02:36:21.906Z,99.13
2023-04-09T02:38:49.000Z,98.95
2023-04-09T02:41:16.224Z,99.64
2023-04-09T02:43:43.135Z,100.00
2023-04-09T02:46:10.224Z,100.00
2023-04-09T02:48:37.283Z,99.50
2023-04-09T02:51:07.274Z,99.56
2023-04-09T02:53:34.329Z,99.91
2023-04-09T02:56:01.384Z,100.00
2023-04-09T02:58:28.408Z,100.00
2023-04-09T03:00:55.450Z,100.00
2023-04-09T03:03:22.655Z,100.00
2023-04-09T03:05:49.763Z,100.00
2023-04-09T03:08:16.893Z,100.00
2023-04-09T03:10:43.885Z,100.00
2023-04-09T03:13:10.996Z,100.00
2023-04-09T03:15:38.072Z,100.00
2023-04-09T03:18:05.308Z,100.00
2023-04-09T03:20:32.482Z,100.00
2023-04-09T03:22:59.410Z,100.00
2023-04-09T03:25:34.707Z,100.00
2023-04-09T03:28:10.535Z,100.00
2023-04-09T03:30:47.225Z,100.00
2023-04-09T03:33:15.172Z,100.00
2023-04-09T03:35:56.884Z,100.00
2023-04-09T03:38:50.384Z,100.00
2023-04-09T03:41:27.600Z,100.00
2023-04-09T03:43:56.937Z,100.00
2023-04-09T03:46:28.352Z,100.00
2023-04-09T03:48:57.738Z,100.00
2023-04-09T03:51:33.219Z,100.00
2023-04-09T03:54:08.411Z,100.00
2023-04-09T03:56:36.745Z,100.00
2023-04-09T03:59:09.074Z,100.00
2023-04-09T04:01:41.967Z,100.00
2023-04-09T04:04:09.926Z,100.00
2023-04-09T04:06:51.568Z,100.00
2023-04-09T04:09:26.580Z,100.00
2023-04-09T04:12:02.435Z,100.00
2023-04-09T04:14:49.853Z,100.00
2023-04-09T04:17:30.601Z,100.00
2023-04-09T04:19:58.599Z,100.00
2023-04-09T04:22:26.363Z,97.23
2023-04-09T04:24:56.345Z,98.95
2023-04-09T04:27:24.667Z,97.67
2023-04-09T04:29:51.533Z,94.51
2023-04-09T04:32:33.945Z,93.31
2023-04-09T04:35:05.104Z,91.75
2023-04-09T04:37:32.525Z,89.47
2023-04-09T04:40:07.110Z,82.58
2023-04-09T04:42:37.826Z,79.83
2023-04-09T04:45:10.921Z,75.88
2023-04-09T04:47:43.815Z,78.86
2023-04-09T04:50:10.977Z,79.96
2023-04-09T04:52:58.190Z,76.37
2023-04-09T04:55:28.954Z,72.89
2023-04-09T04:57:56.381Z,78.42
2023-04-09T05:00:27.443Z,77.15
2023-04-09T05:02:56.350Z,72.15
2023-04-09T05:05:46.493Z,73.82
2023-04-09T05:08:13.656Z,62.06
2023-04-09T05:10:43.112Z,58.43
2023-04-09T05:13:11.311Z,59.50
2023-04-09T05:15:39.788Z,54.60
2023-04-09T05:18:08.219Z,57.21
2023-04-09T05:20:36.682Z,56.17
2023-04-09T05:23:10.426Z,58.54
2023-04-09T05:25:42.507Z,54.02
2023-04-09T05:28:17.051Z,53.21
2023-04-09T05:30:48.426Z,55.14
2023-04-09T05:33:17.604Z,51.11
2023-04-09T05:35:45.593Z,49.49
2023-04-09T05:38:13.878Z,53.39
2023-04-09T05:40:44.490Z,51.20
2023-04-09T05:43:15.699Z,51.87
2023-04-09T05:45:45.321Z,50.29
2023-04-09T05:48:12.951Z,53.60
2023-04-09T05:50:53.320Z,53.50
2023-04-09T05:53:21.830Z,50.44
2023-04-09T05:55:52.145Z,48.48
2023-04-09T05:58:23.556Z,50.11
2023-04-09T06:00:52.600Z,51.76
2023-04-09T06:03:19.938Z,53.23
2023-04-09T06:05:47.114Z,53.82
2023-04-09T06:08:14.319Z,51.52
2023-04-09T06:10:41.563Z,52.15
2023-04-09T06:13:09.956Z,50.90
2023-04-09T06:15:38.842Z,49.04
2023-04-09T06:18:05.836Z,51.62
2023-04-09T06:20:32.786Z,47.76
2023-04-09T06:22:59.782Z,50.03
2023-04-09T06:25:26.707Z,49.07
2023-04-09T06:27:53.661Z,50.49
2023-04-09T06:30:20.861Z,53.62
2023-04-09T06:32:54.247Z,54.35
2023-04-09T06:35:22.280Z,53.52
2023-04-09T06:37:49.491Z,53.94
2023-04-09T06:40:16.678Z,54.14
2023-04-09T06:42:43.872Z,51.64
2023-04-09T06:45:22.513Z,52.85
2023-04-09T06:47:50.068Z,50.39
2023-04-09T06:50:17.348Z,47.49
2023-04-09T06:52:44.370Z,50.83
2023-04-09T06:55:11.676Z,50.97
2023-04-09T06:57:39.441Z,50.75
2023-04-09T07:00:07.348Z,50.12
2023-04-09T07:02:34.814Z,50.64
2023-04-09T07:05:02.226Z,52.68
2023-04-09T07:07:29.181Z,51.97
2023-04-09T07:09:56.373Z,53.62
2023-04-09T07:12:30.504Z,51.56
2023-04-09T07:15:07.172Z,51.18
2023-04-09T07:17:35.478Z,50.42
2023-04-09T07:20:02.576Z,46.31
2023-04-09T07:22:30.432Z,45.38
2023-04-09T07:24:57.637Z,43.14
2023-04-09T07:40:18.076Z,46.20
2023-04-09T07:42:45.258Z,43.98
2023-04-09T07:45:12.377Z,42.67
2023-04-09T07:47:40.959Z,49.95
2023-04-09T07:50:08.832Z,48.21
2023-04-09T07:52:35.794Z,47.57
2023-04-09T07:55:02.821Z,51.95
2023-04-09T07:57:32.481Z,50.54
2023-04-09T07:59:59.574Z,48.41
2023-04-09T08:02:27.293Z,47.81
2023-04-09T08:04:54.674Z,47.11
2023-04-09T08:07:22.055Z,45.25
2023-04-09T08:09:48.999Z,44.95
2023-04-09T08:12:16.116Z,46.75
2023-04-09T08:14:44.166Z,47.03
2023-04-09T08:17:11.257Z,47.30
2023-04-09T08:19:40.464Z,46.09
2023-04-09T08:22:08.610Z,48.15
2023-04-09T08:24:35.789Z,45.06
2023-04-09T08:27:02.743Z,43.83
2023-04-09T08:29:29.858Z,41.83
2023-04-09T08:31:57.381Z,45.73
2023-04-09T08:34:24.422Z,42.33
2023-04-09T08:36:51.754Z,45.67
2023-04-09T08:39:20.834Z,44.88
2023-04-09T08:41:48.537Z,41.70
2023-04-09T08:44:15.616Z,39.62
2023-04-09T08:46:43.008Z,38.43
2023-04-09T08:49:10.994Z,42.00
2023-04-09T08:51:38.029Z,43.23
2023-04-09T08:54:05.334Z,46.48
2023-04-09T08:56:32.601Z,45.07
2023-04-09T08:58:59.506Z,46.06
2023-04-09T09:01:30.966Z,42.38
2023-04-09T09:04:06.761Z,44.24
2023-04-09T09:06:38.963Z,47.15
2023-04-09T09:09:16.540Z,47.04
2023-04-09T09:11:48.714Z,44.90
2023-04-09T09:14:17.468Z,41.59
2023-04-09T09:17:04.563Z,40.08
2023-04-09T09:19:36.548Z,42.16
2023-04-09T09:22:06.675Z,48.11
2023-04-09T09:24:34.671Z,46.46
2023-04-09T09:27:05.396Z,40.41
2023-04-09T09:29:33.276Z,37.96
2023-04-09T09:32:00.832Z,34.15
2023-04-09T09:34:27.797Z,35.04
2023-04-09T09:36:54.965Z,33.23
2023-04-09T09:39:22.394Z,37.01
2023-04-09T09:42:07.476Z,39.30
2023-04-09T09:44:34.420Z,38.64
2023-04-09T09:47:04.223Z,37.19
2023-04-09T09:49:31.528Z,36.09
2023-04-09T09:52:01.571Z,38.80
2023-04-09T09:54:33.345Z,37.98
2023-04-09T09:57:04.870Z,38.13
2023-04-09T09:59:37.688Z,35.84
2023-04-09T10:02:07.824Z,35.27
2023-04-09T10:04:36.183Z,36.50
2023-04-09T10:07:05.960Z,37.94
2023-04-09T10:09:38.332Z,33.02
2023-04-09T10:12:07.687Z,34.69
2023-04-09T10:14:36.226Z,31.95
2023-04-09T10:17:04.192Z,31.54
2023-04-09T10:19:39.968Z,32.40
2023-04-09T10:22:16.757Z,34.47
2023-04-09T10:24:44.239Z,34.34
2023-04-09T10:27:15.742Z,34.25
2023-04-09T10:29:45.612Z,35.35
2023-04-09T10:32:13.808Z,34.40
2023-04-09T10:34:44.018Z,36.04
2023-04-09T10:37:25.381Z,36.20
2023-04-09T10:39:53.215Z,36.77
2023-04-09T10:42:27.526Z,37.27
2023-04-09T10:45:11.731Z,38.17
2023-04-09T10:47:40.483Z,38.66
2023-04-09T10:50:26.194Z,40.52
2023-04-09T10:53:00.912Z,42.49
2023-04-09T10:55:38.304Z,42.04
2023-04-09T10:58:08.513Z,43.60
2023-04-09T11:00:40.638Z,44.07
2023-04-09T11:03:24.465Z,42.60
2023-04-09T11:05:56.788Z,43.04
2023-04-09T11:08:23.989Z,46.09
2023-04-09T11:10:52.392Z,47.63
2023-04-09T11:13:21.049Z,48.80
2023-04-09T11:15:48.427Z,48.84
2023-04-09T11:18:20.309Z,51.86
2023-04-09T11:20:47.804Z,51.63
2023-04-09T11:23:16.383Z,51.71
2023-04-09T11:25:48.328Z,58.68
2023-04-09T11:28:15.364Z,64.24
2023-04-09T11:30:43.894Z,67.12
2023-04-09T11:33:10.948Z,66.03
2023-04-09T11:35:38.318Z,67.83
2023-04-09T11:38:10.038Z,68.78
2023-04-09T11:40:43.653Z,68.16
2023-04-09T11:43:11.082Z,67.70
2023-04-09T11:45:39.354Z,69.67
2023-04-09T11:48:06.965Z,69.61
2023-04-09T11:50:34.578Z,67.06
2023-04-09T11:53:01.513Z,69.78
2023-04-09T11:55:29.693Z,70.08
2023-04-09T11:58:01.412Z,75.04
2023-04-09T12:00:29.250Z,74.33
2023-04-09T12:03:03.125Z,73.06
2023-04-09T12:05:35.145Z,74.32
2023-04-09T12:08:05.217Z,72.11
2023-04-09T12:10:34.558Z,71.20
2023-04-09T12:13:03.880Z,69.73
2023-04-09T12:15:36.094Z,75.07
2023-04-09T12:18:03.898Z,75.88
2023-04-09T12:20:35.138Z,77.48
2023-04-09T12:23:04.274Z,77.88
2023-04-09T12:25:36.968Z,78.47
2023-04-09T12:28:06.256Z,76.48
2023-04-09T12:30:34.352Z,78.56
2023-04-09T12:33:03.530Z,78.14
2023-04-09T12:35:30.698Z,77.78
2023-04-09T12:37:59.441Z,76.17
2023-04-09T12:40:27.026Z,73.65
2023-04-09T12:42:54.277Z,74.14
2023-04-09T12:45:21.549Z,74.61
2023-04-09T12:47:49.075Z,75.52
2023-04-09T12:50:16.470Z,72.65
2023-04-09T12:52:44.419Z,67.25
2023-04-09T12:55:12.487Z,70.73
2023-04-09T12:57:42.002Z,70.72
2023-04-09T13:00:11.958Z,70.75
2023-04-09T13:02:39.455Z,70.29
2023-04-09T13:05:06.746Z,69.77
2023-04-09T13:07:33.757Z,68.29
2023-04-09T13:10:00.584Z,69.71
2023-04-09T13:12:27.545Z,69.28
2023-04-09T13:14:55.205Z,68.22
2023-04-09T13:17:23.070Z,68.65
2023-04-09T13:19:51.887Z,69.62
2023-04-09T13:22:19.404Z,70.55
2023-04-09T13:24:46.328Z,70.86
2023-04-09T13:27:13.247Z,72.70
2023-04-09T13:29:40.697Z,72.02
2023-04-09T13:32:07.848Z,71.79
2023-04-09T13:34:35.695Z,69.80
2023-04-09T13:37:03.641Z,70.57
2023-04-09T13:39:31.052Z,69.23
2023-04-09T13:41:58.042Z,67.09
2023-04-09T13:44:25.560Z,65.93
2023-04-09T13:46:52.782Z,67.95
2023-04-09T13:49:19.779Z,68.82
2023-04-09T13:51:47.175Z,69.24
2023-04-09T13:54:14.181Z,71.21
2023-04-09T13:56:41.553Z,69.31
2023-04-09T13:59:08.525Z,68.35
2023-04-09T14:01:35.958Z,70.17
2023-04-09T14:04:03.012Z,71.28
2023-04-09T14:06:30.035Z,72.53
2023-04-09T14:08:57.130Z,70.37
2023-04-09T14:11:24.005Z,71.03
2023-04-09T14:13:51.292Z,69.66
2023-04-09T14:16:19.707Z,66.94
2023-04-09T14:18:46.628Z,66.28
2023-04-09T14:21:13.665Z,67.75
2023-04-09T14:23:41.100Z,68.13
2023-04-09T14:26:07.980Z,65.51
2023-04-09T14:28:34.795Z,66.55
2023-04-09T14:31:01.774Z,67.11
2023-04-09T14:33:28.747Z,64.57
2023-04-09T14:35:55.688Z,64.17
2023-04-09T14:38:24.231Z,63.18
2023-04-09T14:40:51.761Z,64.43
2023-04-09T14:43:18.704Z,65.52
2023-04-09T14:45:45.601Z,64.00
2023-04-09T14:48:12.533Z,62.18
2023-04-09T14:50:39.349Z,58.88
2023-04-09T14:53:06.166Z,59.95
2023-04-09T14:55:32.970Z,60.21
2023-04-09T14:58:01.708Z,60.46
2023-04-09T15:00:28.631Z,60.37
2023-04-09T15:02:56.465Z,61.18
2023-04-09T15:05:23.735Z,62.70
2023-04-09T15:07:50.588Z,64.01
2023-04-09T15:10:17.653Z,64.51
2023-04-09T15:12:44.521Z,67.34
2023-04-09T15:15:13.709Z,67.15
2023-04-09T15:17:41.276Z,67.56
2023-04-09T15:20:08.516Z,68.09
2023-04-09T15:22:35.552Z,67.94
2023-04-09T15:25:02.506Z,67.52
2023-04-09T15:27:29.376Z,66.94
2023-04-09T15:29:56.270Z,66.14
2023-04-09T15:32:23.159Z,67.36
2023-04-09T15:34:50.440Z,68.42
2023-04-09T15:37:17.351Z,68.88
2023-04-09T15:39:44.286Z,70.22
2023-04-09T15:42:12.750Z,71.08
2023-04-09T15:44:41.502Z,71.88
2023-04-09T15:47:08.383Z,72.66
2023-04-09T15:49:36.987Z,74.21
2023-04-09T15:52:04.167Z,74.69
2023-04-09T15:54:31.249Z,75.15
2023-04-09T15:56:58.169Z,75.40
2023-04-09T15:59:25.218Z,76.19
2023-04-09T16:01:52.788Z,76.63
2023-04-09T16:04:19.709Z,77.20
2023-04-09T16:06:46.724Z,77.39
2023-04-09T16:09:13.560Z,78.46
2023-04-09T16:11:40.729Z,79.46
2023-04-09T16:14:09.299Z,79.80
2023-04-09T16:16:37.102Z,80.76
2023-04-09T16:19:04.032Z,80.96
2023-04-09T16:21:31.224Z,80.95
2023-04-09T16:24:00.928Z,81.48
2023-04-09T16:26:27.731Z,81.92
2023-04-09T16:28:55.013Z,81.98
2023-04-09T16:31:22.192Z,81.94
2023-04-09T16:33:49.051Z,82.07
2023-04-09T16:36:16.257Z,82.11
2023-04-09T16:38:43.143Z,81.68
2023-04-09T16:41:10.019Z,81.45
2023-04-09T16:43:36.944Z,82.11
2023-04-09T16:46:06.629Z,81.72
2023-04-09T16:48:34.227Z,82.05
2023-04-09T16:51:01.080Z,81.44
2023-04-09T16:53:28.013Z,81.62
2023-04-09T16:55:55.077Z,81.79
2023-04-09T16:58:22.004Z,81.47
2023-04-09T17:00:50.577Z,80.82
2023-04-09T17:03:19.139Z,79.51
2023-04-09T17:05:49.613Z,78.70
2023-04-09T17:08:17.501Z,78.69
2023-04-09T17:10:44.865Z,76.73
2023-04-09T17:13:12.249Z,76.88
2023-04-09T17:15:39.167Z,75.95
2023-04-09T17:18:06.133Z,71.56
2023-04-09T17:20:32.995Z,71.71
2023-04-09T17:22:59.956Z,72.13
2023-04-09T17:25:27.159Z,70.21
2023-04-09T17:27:54.640Z,65.71
2023-04-09T17:30:21.484Z,66.51
2023-04-09T17:32:51.202Z,68.59
2023-04-09T17:35:18.262Z,68.54
2023-04-09T17:37:45.196Z,68.34
2023-04-09T17:40:14.458Z,66.06
2023-04-09T17:42:41.732Z,65.55
2023-04-09T17:45:09.151Z,66.46
2023-04-09T17:47:36.077Z,66.86
2023-04-09T17:50:03.140Z,66.98
2023-04-09T17:52:36.723Z,66.86
2023-04-09T17:55:07.922Z,66.52
2023-04-09T17:57:35.925Z,66.34
2023-04-09T18:00:04.477Z,66.40
2023-04-09T18:02:32.773Z,66.80
2023-04-09T18:05:04.531Z,67.36
2023-04-09T18:07:35.628Z,68.28
2023-04-09T18:10:03.551Z,68.73
2023-04-09T18:12:30.850Z,69.14
2023-04-09T18:14:57.715Z,69.55
2023-04-09T18:17:26.449Z,69.28
2023-04-09T18:19:54.810Z,69.26
2023-04-09T18:22:21.913Z,70.63
2023-04-09T18:24:49.884Z,71.05
2023-04-09T18:27:17.803Z,72.07
2023-04-09T18:29:44.825Z,72.46
2023-04-09T18:32:12.568Z,72.86
2023-04-09T18:34:39.489Z,74.41
2023-04-09T18:37:06.506Z,75.03
2023-04-09T18:39:34.884Z,76.06
2023-04-09T18:42:02.608Z,75.38
2023-04-09T18:44:29.503Z,75.54
2023-04-09T18:46:56.629Z,78.32
2023-04-09T18:49:23.715Z,74.73
2023-04-09T18:51:50.584Z,74.19
2023-04-09T18:54:19.835Z,73.98
2023-04-09T18:56:46.731Z,72.75
2023-04-09T18:59:13.644Z,75.04
2023-04-09T19:01:40.580Z,72.88
2023-04-09T19:04:07.892Z,70.95
2023-04-09T19:06:36.235Z,70.53
2023-04-09T19:09:05.655Z,70.51
2023-04-09T19:11:32.461Z,69.44
2023-04-09T19:13:59.380Z,69.71
2023-04-09T19:16:26.309Z,71.22
2023-04-09T19:18:53.526Z,70.12
2023-04-09T19:21:20.617Z,70.45
2023-04-09T19:23:47.714Z,71.15
2023-04-09T19:26:14.898Z,69.77
2023-04-09T19:41:36.923Z,74.60
2023-04-09T19:44:05.326Z,73.15
2023-04-09T19:46:33.544Z,73.39
2023-04-09T19:49:00.752Z,73.01
2023-04-09T19:51:27.600Z,71.38
2023-04-09T19:53:54.817Z,71.43
2023-04-09T19:56:21.733Z,71.70
2023-04-09T19:58:48.632Z,71.75
2023-04-09T20:01:17.084Z,70.83
2023-04-09T20:03:44.298Z,70.98
2023-04-09T20:06:11.321Z,71.86
2023-04-09T20:08:38.454Z,68.19
2023-04-09T20:11:08.120Z,67.54
2023-04-09T20:13:35.052Z,68.17
2023-04-09T20:16:02.237Z,68.09
2023-04-09T20:18:29.205Z,68.44
2023-04-09T20:20:56.116Z,67.74
2023-04-09T20:23:23.583Z,68.27
2023-04-09T20:25:56.844Z,68.87
2023-04-09T20:28:23.737Z,67.48
2023-04-09T20:30:52.065Z,67.96
2023-04-09T20:33:18.998Z,67.49
2023-04-09T20:35:46.112Z,68.82
2023-04-09T20:38:13.124Z,69.00
2023-04-09T20:40:40.808Z,69.41
2023-04-09T20:43:07.748Z,69.60
2023-04-09T20:45:34.722Z,70.33
2023-04-09T20:48:02.401Z,70.88
2023-04-09T20:50:31.057Z,70.93
2023-04-09T20:52:58.877Z,70.25
2023-04-09T20:55:26.001Z,70.72
2023-04-09T20:57:57.119Z,72.87
2023-04-09T21:00:24.501Z,71.15
2023-04-09T21:02:51.701Z,71.17
2023-04-09T21:05:23.497Z,71.49
2023-04-09T21:07:51.545Z,72.69
2023-04-09T21:10:18.727Z,71.88
2023-04-09T21:12:45.710Z,73.51
2023-04-09T21:15:12.611Z,73.20
2023-04-09T21:17:39.640Z,72.75
2023-04-09T21:20:06.921Z,72.25
2023-04-09T21:22:34.969Z,72.45
2023-04-09T21:25:03.299Z,72.70
2023-04-09T21:27:31.141Z,72.55
2023-04-09T21:29:58.166Z,71.50
2023-04-09T21:32:25.370Z,71.63
2023-04-09T21:34:53.579Z,71.28
2023-04-09T21:37:20.496Z,72.17
2023-04-09T21:39:48.925Z,72.70
2023-04-09T21:42:15.950Z,72.54
2023-04-09T21:44:43.019Z,71.73
2023-04-09T21:47:09.923Z,71.87
2023-04-09T21:49:40.295Z,71.54
2023-04-09T21:52:16.115Z,71.91
2023-04-09T21:54:46.736Z,72.27
2023-04-09T21:57:13.601Z,72.29
2023-04-09T21:59:41.551Z,72.01
2023-04-09T22:02:09.077Z,72.43
2023-04-09T22:04:36.833Z,72.35
2023-04-09T22:07:03.947Z,72.02
2023-04-09T22:09:31.646Z,71.68
2023-04-09T22:11:59.646Z,71.06
2023-04-09T22:14:29.624Z,70.77
2023-04-09T22:16:58.265Z,70.31
2023-04-09T22:19:26.334Z,70.13
2023-04-09T22:21:54.188Z,71.31
2023-04-09T22:24:30.431Z,70.57
2023-04-09T22:27:01.905Z,70.30
2023-04-09T22:29:29.489Z,70.76
2023-04-09T22:31:59.176Z,69.71
2023-04-09T22:34:26.481Z,70.57
2023-04-09T22:36:53.379Z,70.33
2023-04-09T22:39:21.616Z,70.87
2023-04-09T22:41:48.486Z,70.86
2023-04-09T22:44:15.358Z,70.55
2023-04-09T22:46:42.380Z,71.28
2023-04-09T22:49:09.496Z,70.62
2023-04-09T22:51:36.575Z,71.16
2023-04-09T22:54:03.721Z,71.30
2023-04-09T22:56:32.045Z,71.37
2023-04-09T22:58:59.561Z,70.76
2023-04-09T23:01:27.583Z,71.00
2023-04-09T23:03:54.644Z,71.26
2023-04-09T23:06:22.716Z,70.37
2023-04-09T23:08:49.923Z,70.22
2023-04-09T23:11:16.856Z,70.54
2023-04-09T23:13:43.794Z,69.26
2023-04-09T23:16:11.164Z,70.44
2023-04-09T23:18:38.156Z,69.78
2023-04-09T23:21:09.419Z,69.82
2023-04-09T23:23:37.172Z,69.54
2023-04-09T23:26:04.874Z,69.91
2023-04-09T23:28:32.402Z,69.62
2023-04-09T23:30:59.428Z,69.29
2023-04-09T23:33:26.749Z,70.00
2023-04-09T23:35:53.845Z,69.46
2023-04-09T23:38:20.932Z,68.68
2023-04-09T23:40:49.050Z,69.08
2023-04-09T23:43:16.142Z,68.84
2023-04-09T23:45:43.908Z,68.91
2023-04-09T23:48:12.202Z,68.67
2023-04-09T23:50:40.601Z,68.91
2023-04-09T23:53:07.752Z,69.07
2023-04-09T23:55:38.214Z,68.88
2023-04-09T23:58:05.578Z,68.95
